Snover, Michigan
Current Conditions -  °F | °C
As of 2:58 AM on Friday 31 Oct 2014 (Local Time) from KBAX Reporting Station
Overcast Overcast  
Wind Chill: 39°   Ceiling: 3700
Heat Index: 42°   Visibility: 10mi
Dew Point: 40°   Wind: 6mph
Humidity: 90%   Direction: 230°SW
Pressure: 29.92"   Gusts: NA
Location:  43.46°N, 82.97°W
Report Text: KBAX 310658Z AUTO 23005KT 10SM SCT028 BKN037 OVC090 06/04 A2992 RMK AO2 T00580043
Loading
Personal Weather Stations






























Interactive Weather Map New forecast layout! Learn more

10-Day Weather Forecast

Advertisements
Track Severe Weather on mobile